Time;durP1;ratioP1;P1;durP2;ratioP2;P2;SDS_P1;SDS_P2;PMS_P1;PMS_P2;Temp;Humidity;BMP_temperature;BMP_pressure;BME280_temperature;BME280_humidity;BME280_pressure;Samples;Min_cycle;Max_cycle;Signal;HPM_P1;HPM_P2
2024/03/14 00:02:20;;;;;;;15.45;4.10;;;;;;;;;;5072326;28;20048;-75
2024/03/14 00:04:46;;;;;;;17.60;4.38;;;;;;;;;;5073055;28;20041;-76
2024/03/14 00:07:14;;;;;;;16.55;4.22;;;;;;;;;;5072433;28;20098;-76
2024/03/14 00:09:41;;;;;;;15.90;4.88;;;;;;;;;;5055236;28;20036;-75
2024/03/14 00:12:08;;;;;;;15.38;4.65;;;;;;;;;;5054816;28;20348;-75
2024/03/14 00:14:35;;;;;;;17.60;4.93;;;;;;;;;;5072939;28;20033;-74
2024/03/14 00:17:02;;;;;;;10.57;3.55;;;;;;;;;;5072829;28;20086;-75
2024/03/14 00:19:29;;;;;;;12.80;3.40;;;;;;;;;;5071935;28;20368;-75
2024/03/14 00:21:56;;;;;;;17.60;4.45;;;;;;;;;;5072866;28;20036;-74
2024/03/14 00:24:23;;;;;;;16.73;4.57;;;;;;;;;;5072236;28;20044;-76
2024/03/14 00:26:50;;;;;;;17.75;5.32;;;;;;;;;;5072440;28;20047;-75
2024/03/14 00:29:17;;;;;;;16.38;5.10;;;;;;;;;;5072385;28;20075;-75
2024/03/14 00:31:44;;;;;;;17.65;5.75;;;;;;;;;;5072637;28;20382;-76
2024/03/14 00:34:12;;;;;;;11.23;5.25;;;;;;;;;;5072087;28;20041;-75
2024/03/14 00:36:38;;;;;;;14.95;5.03;;;;;;;;;;5072470;28;20057;-75
2024/03/14 00:39:08;;;;;;;19.80;5.57;;;;;;;;;;5054210;28;20055;-76
2024/03/14 00:41:35;;;;;;;19.05;5.88;;;;;;;;;;5073464;28;20438;-75
2024/03/14 00:44:03;;;;;;;18.63;5.10;;;;;;;;;;5076266;28;20043;-75
2024/03/14 00:46:33;;;;;;;15.13;5.28;;;;;;;;;;5076102;28;20051;-75
2024/03/14 00:49:00;;;;;;;16.70;4.95;;;;;;;;;;5076439;28;20037;-76
2024/03/14 00:51:26;;;;;;;16.40;6.00;;;;;;;;;;5075937;28;20085;-75
2024/03/14 00:53:55;;;;;;;19.80;6.07;;;;;;;;;;5076318;28;20471;-76
2024/03/14 00:56:24;;;;;;;16.30;6.88;;;;;;;;;;5075653;28;20089;-75
2024/03/14 00:58:51;;;;;;;21.25;6.80;;;;;;;;;;5075970;28;20044;-76
2024/03/14 01:01:18;;;;;;;21.70;6.20;;;;;;;;;;5075691;28;20040;-76
2024/03/14 01:03:45;;;;;;;28.30;6.95;;;;;;;;;;5076031;28;20044;-75
2024/03/14 01:06:11;;;;;;;15.68;6.50;;;;;;;;;;5075497;28;20041;-75
2024/03/14 01:08:38;;;;;;;20.85;7.25;;;;;;;;;;5076049;28;20486;-75
2024/03/14 01:11:05;;;;;;;24.33;8.40;;;;;;;;;;5075482;28;20043;-74
2024/03/14 01:13:32;;;;;;;23.55;6.70;;;;;;;;;;5075870;28;20045;-75
2024/03/14 01:15:59;;;;;;;24.60;6.32;;;;;;;;;;5076024;28;20048;-75
2024/03/14 01:18:26;;;;;;;17.67;6.18;;;;;;;;;;5074911;28;20041;-76
2024/03/14 01:20:53;;;;;;;18.27;6.07;;;;;;;;;;5075478;28;20426;-76
2024/03/14 01:23:19;;;;;;;16.65;6.88;;;;;;;;;;5075270;28;20032;-75
2024/03/14 01:25:46;;;;;;;20.88;6.22;;;;;;;;;;5075419;28;20041;-74
2024/03/14 01:28:13;;;;;;;19.63;5.97;;;;;;;;;;5075058;28;20041;-75
2024/03/14 01:30:42;;;;;;;19.42;5.50;;;;;;;;;;5075671;28;20037;-75
2024/03/14 01:33:09;;;;;;;21.42;5.82;;;;;;;;;;5075181;28;20086;-76
2024/03/14 01:35:36;;;;;;;21.38;6.07;;;;;;;;;;5075100;28;20036;-75
2024/03/14 01:38:03;;;;;;;21.98;6.43;;;;;;;;;;5075527;28;20124;-76
2024/03/14 01:40:31;;;;;;;20.90;5.95;;;;;;;;;;5074942;28;20044;-76
2024/03/14 01:42:57;;;;;;;22.30;6.17;;;;;;;;;;5075337;28;20068;-75
2024/03/14 01:45:24;;;;;;;19.95;5.68;;;;;;;;;;5074772;28;20058;-76
2024/03/14 01:47:51;;;;;;;17.50;6.38;;;;;;;;;;5075127;28;20422;-75
2024/03/14 01:50:18;;;;;;;18.58;6.63;;;;;;;;;;5074573;28;20047;-75
2024/03/14 01:52:45;;;;;;;17.92;6.75;;;;;;;;;;5074538;28;20044;-74
2024/03/14 01:55:13;;;;;;;15.65;6.57;;;;;;;;;;5074237;28;20364;-75
2024/03/14 01:57:41;;;;;;;18.60;6.78;;;;;;;;;;5075188;28;20040;-75
2024/03/14 02:00:11;;;;;;;25.48;5.88;;;;;;;;;;5074511;28;20036;-75
2024/03/14 02:02:38;;;;;;;27.85;6.90;;;;;;;;;;5075050;28;20060;-74
2024/03/14 02:05:15;;;;;;;15.82;6.13;;;;;;;;;;5074191;28;20053;-75
2024/03/14 02:07:42;;;;;;;18.27;6.10;;;;;;;;;;5074772;28;20544;-75
2024/03/14 02:10:14;;;;;;;22.20;6.88;;;;;;;;;;5074318;28;20047;-76
2024/03/14 02:12:41;;;;;;;23.58;6.80;;;;;;;;;;5074901;28;20098;-75
2024/03/14 02:15:08;;;;;;;21.30;6.78;;;;;;;;;;5074186;28;20045;-75
2024/03/14 02:17:35;;;;;;;18.63;6.05;;;;;;;;;;5074772;28;20041;-75
2024/03/14 02:20:04;;;;;;;17.85;6.18;;;;;;;;;;5074403;28;20041;-75
2024/03/14 02:22:31;;;;;;;18.10;6.25;;;;;;;;;;5074326;28;20379;-75
2024/03/14 02:24:58;;;;;;;16.77;6.20;;;;;;;;;;5074524;28;20042;-75
2024/03/14 02:27:25;;;;;;;18.52;6.35;;;;;;;;;;5073845;28;20044;-75
2024/03/14 02:29:52;;;;;;;19.35;6.18;;;;;;;;;;5074571;28;20060;-76
2024/03/14 02:32:18;;;;;;;23.98;6.65;;;;;;;;;;5073833;28;20056;-75
2024/03/14 02:34:45;;;;;;;21.00;5.70;;;;;;;;;;5056587;28;20036;-75
2024/03/14 02:37:12;;;;;;;21.55;6.68;;;;;;;;;;5073735;28;20040;-75
2024/03/14 02:39:39;;;;;;;17.27;5.90;;;;;;;;;;5074344;28;20422;-75
2024/03/14 02:42:06;;;;;;;21.33;6.22;;;;;;;;;;5073833;28;20044;-75
2024/03/14 02:44:33;;;;;;;20.60;5.63;;;;;;;;;;5074008;28;20037;-75
2024/03/14 02:46:59;;;;;;;17.58;5.95;;;;;;;;;;5074163;28;20040;-75
2024/03/14 02:49:27;;;;;;;19.85;6.88;;;;;;;;;;5073604;28;20048;-75
2024/03/14 02:51:54;;;;;;;17.27;6.22;;;;;;;;;;5073856;28;20474;-76
2024/03/14 02:54:21;;;;;;;16.10;5.68;;;;;;;;;;5073356;28;20036;-75
2024/03/14 02:56:49;;;;;;;20.88;6.93;;;;;;;;;;5073866;28;20048;-76
2024/03/14 02:59:17;;;;;;;17.13;5.97;;;;;;;;;;5073281;28;20045;-75
2024/03/14 03:01:44;;;;;;;15.18;5.50;;;;;;;;;;5073628;28;20056;-75
2024/03/14 03:04:11;;;;;;;24.92;7.03;;;;;;;;;;5072923;28;20044;-76
2024/03/14 03:06:58;;;;;;;18.17;5.50;;;;;;;;;;5073772;28;20051;-76
2024/03/14 03:09:25;;;;;;;22.63;7.30;;;;;;;;;;5073194;28;20493;-75
2024/03/14 03:11:55;;;;;;;17.55;6.35;;;;;;;;;;5073607;28;20043;-76
2024/03/14 03:14:22;;;;;;;15.85;6.68;;;;;;;;;;5073018;28;20056;-75
2024/03/14 03:16:49;;;;;;;25.80;7.00;;;;;;;;;;5073528;28;20115;-76
2024/03/14 03:19:16;;;;;;;19.33;6.65;;;;;;;;;;5072871;28;20044;-75
2024/03/14 03:21:43;;;;;;;16.35;5.88;;;;;;;;;;5073340;28;20467;-75
2024/03/14 03:24:12;;;;;;;17.63;6.57;;;;;;;;;;5072914;28;20059;-75
2024/03/14 03:26:41;;;;;;;20.17;6.93;;;;;;;;;;5055969;28;20360;-76
2024/03/14 03:29:08;;;;;;;16.65;6.15;;;;;;;;;;5073115;28;20162;-75
2024/03/14 03:31:34;;;;;;;20.85;6.22;;;;;;;;;;5073167;28;20044;-76
2024/03/14 03:34:01;;;;;;;19.70;5.90;;;;;;;;;;5073193;28;20040;-76
2024/03/14 03:36:29;;;;;;;21.67;6.10;;;;;;;;;;5072584;28;20048;-75
2024/03/14 03:38:56;;;;;;;20.13;6.03;;;;;;;;;;5073254;28;20037;-76
2024/03/14 03:41:24;;;;;;;23.83;5.93;;;;;;;;;;5072769;28;20043;-75
2024/03/14 03:43:50;;;;;;;23.42;5.75;;;;;;;;;;5073004;28;20047;-75
2024/03/14 03:46:17;;;;;;;18.75;5.38;;;;;;;;;;5072621;28;20045;-77
2024/03/14 03:48:44;;;;;;;19.50;5.35;;;;;;;;;;5072991;28;20039;-75
2024/03/14 03:51:17;;;;;;;23.23;6.80;;;;;;;;;;5072535;28;20036;-75
2024/03/14 03:53:45;;;;;;;20.30;6.70;;;;;;;;;;5073108;28;20094;-75
2024/03/14 03:56:13;;;;;;;17.77;5.90;;;;;;;;;;5072429;28;20060;-75
2024/03/14 03:58:42;;;;;;;18.20;5.38;;;;;;;;;;5073056;28;20105;-75
2024/03/14 04:01:12;;;;;;;17.48;5.20;;;;;;;;;;5072402;28;20037;-76
2024/03/14 04:03:40;;;;;;;16.08;5.03;;;;;;;;;;5072813;28;20041;-75
2024/03/14 04:06:13;;;;;;;15.02;6.00;;;;;;;;;;5072485;28;20041;-75
2024/03/14 04:08:39;;;;;;;16.50;4.85;;;;;;;;;;5073077;28;20067;-75
2024/03/14 04:11:09;;;;;;;15.80;5.45;;;;;;;;;;5072265;28;20040;-76
2024/03/14 04:13:36;;;;;;;19.90;5.75;;;;;;;;;;5055536;28;20125;-75
2024/03/14 04:16:06;;;;;;;17.92;5.85;;;;;;;;;;5072876;28;20048;-75
2024/03/14 04:18:34;;;;;;;24.75;6.97;;;;;;;;;;5076455;28;20195;-75
2024/03/14 04:21:07;;;;;;;19.95;6.32;;;;;;;;;;5077025;28;20052;-75
2024/03/14 04:23:35;;;;;;;19.10;6.85;;;;;;;;;;5076468;28;20064;-75
2024/03/14 04:26:02;;;;;;;18.13;6.90;;;;;;;;;;5058629;28;20048;-76
2024/03/14 04:28:29;;;;;;;21.17;6.88;;;;;;;;;;5076665;28;20055;-75
2024/03/14 04:30:56;;;;;;;16.90;6.40;;;;;;;;;;5076647;28;20471;-75
2024/03/14 04:33:23;;;;;;;19.55;6.97;;;;;;;;;;5076373;28;20044;-76
2024/03/14 04:35:52;;;;;;;16.55;6.22;;;;;;;;;;5076623;28;20123;-75
2024/03/14 04:38:23;;;;;;;19.77;6.63;;;;;;;;;;5076205;28;20124;-76
2024/03/14 04:40:50;;;;;;;18.42;7.93;;;;;;;;;;5076533;28;20036;-75
2024/03/14 04:43:18;;;;;;;22.70;6.07;;;;;;;;;;5075956;28;20053;-75
2024/03/14 04:45:45;;;;;;;15.93;6.13;;;;;;;;;;5076385;28;20032;-76
2024/03/14 04:48:12;;;;;;;20.73;6.13;;;;;;;;;;5075762;28;20040;-76
2024/03/14 04:50:40;;;;;;;20.88;7.28;;;;;;;;;;5076316;28;20090;-75
2024/03/14 04:53:09;;;;;;;20.58;6.43;;;;;;;;;;5075975;28;20544;-76
2024/03/14 04:55:36;;;;;;;15.75;6.90;;;;;;;;;;5076175;28;20036;-76
2024/03/14 04:58:03;;;;;;;20.30;6.70;;;;;;;;;;5076245;28;20040;-75
2024/03/14 05:00:31;;;;;;;18.17;6.82;;;;;;;;;;5075800;28;20499;-74
2024/03/14 05:02:58;;;;;;;22.08;7.88;;;;;;;;;;5076133;28;20037;-75
2024/03/14 05:05:25;;;;;;;18.92;7.10;;;;;;;;;;5075562;28;20378;-74
2024/03/14 05:07:53;;;;;;;20.67;6.45;;;;;;;;;;5076003;28;20048;-75
2024/03/14 05:10:20;;;;;;;22.58;6.75;;;;;;;;;;5075434;28;20082;-76
2024/03/14 05:12:48;;;;;;;19.33;6.90;;;;;;;;;;5075988;28;20060;-75
2024/03/14 05:15:15;;;;;;;19.88;6.25;;;;;;;;;;5075349;28;20032;-75
2024/03/14 05:17:44;;;;;;;18.38;6.70;;;;;;;;;;5075777;28;20041;-75
2024/03/14 05:20:13;;;;;;;17.55;6.30;;;;;;;;;;5074857;28;20044;-76
2024/03/14 05:22:41;;;;;;;;;;;;;;;;;;5076289;28;20467;-75
2024/03/14 05:25:11;;;;;;;20.77;7.25;;;;;;;;;;5074900;28;19921;-75
2024/03/14 05:27:43;;;;;;;22.85;7.25;;;;;;;;;;5075366;28;20475;-75
2024/03/14 05:30:13;;;;;;;19.70;6.90;;;;;;;;;;5075065;28;20049;-76
2024/03/14 05:32:40;;;;;;;25.83;7.35;;;;;;;;;;5075584;28;20044;-75
2024/03/14 05:35:10;;;;;;;19.17;6.82;;;;;;;;;;5074982;28;20040;-80
2024/03/14 05:37:37;;;;;;;21.00;7.80;;;;;;;;;;5075592;28;20063;-75
2024/03/14 05:40:05;;;;;;;23.48;7.60;;;;;;;;;;5075442;28;20033;-76
2024/03/14 05:42:31;;;;;;;20.33;7.50;;;;;;;;;;5075207;28;20136;-76
2024/03/14 05:44:58;;;;;;;20.70;7.05;;;;;;;;;;5075165;28;20418;-75
2024/03/14 05:47:25;;;;;;;18.95;7.22;;;;;;;;;;5057015;28;20070;-76
2024/03/14 05:49:52;;;;;;;24.23;7.72;;;;;;;;;;5075211;28;20044;-76
2024/03/14 05:52:18;;;;;;;24.55;7.40;;;;;;;;;;5056833;28;20041;-76
2024/03/14 05:54:45;;;;;;;17.08;7.28;;;;;;;;;;5057498;28;20086;-75
2024/03/14 05:57:14;;;;;;;16.88;6.90;;;;;;;;;;5074782;28;20433;-75
2024/03/14 05:59:41;;;;;;;22.90;7.30;;;;;;;;;;5074991;28;20040;-75
2024/03/14 06:02:08;;;;;;;23.65;8.00;;;;;;;;;;5074418;28;20065;-75
2024/03/14 06:04:35;;;;;;;21.30;6.95;;;;;;;;;;5074912;28;20033;-75
2024/03/14 06:07:02;;;;;;;18.70;7.63;;;;;;;;;;5074887;28;20036;-75
2024/03/14 06:09:39;;;;;;;21.67;7.60;;;;;;;;;;5074710;28;20040;-76
2024/03/14 06:12:06;;;;;;;17.60;7.53;;;;;;;;;;5074348;28;20123;-76
2024/03/14 06:14:33;;;;;;;19.00;8.15;;;;;;;;;;5074746;28;20040;-75
2024/03/14 06:17:00;;;;;;;17.48;7.20;;;;;;;;;;5074636;28;20040;-78
2024/03/14 06:19:26;;;;;;;25.98;8.23;;;;;;;;;;5073459;28;20177;-75
2024/03/14 06:21:53;;;;;;;17.17;7.13;;;;;;;;;;5074389;28;20051;-75
2024/03/14 06:24:20;;;;;;;17.15;7.13;;;;;;;;;;5074511;28;20437;-75
2024/03/14 06:26:47;;;;;;;21.77;7.03;;;;;;;;;;5074779;28;20502;-74
2024/03/14 06:29:14;;;;;;;21.50;6.55;;;;;;;;;;5073961;28;20075;-75
2024/03/14 06:31:44;;;;;;;19.75;6.75;;;;;;;;;;5074491;28;20047;-75
2024/03/14 06:34:10;;;;;;;21.42;7.38;;;;;;;;;;5073848;28;20136;-75
2024/03/14 06:36:37;;;;;;;20.85;7.47;;;;;;;;;;5074373;28;20132;-75
2024/03/14 06:39:07;;;;;;;28.02;7.63;;;;;;;;;;5072848;28;20051;-75
2024/03/14 06:41:34;;;;;;;21.25;6.60;;;;;;;;;;5074456;28;20044;-75
2024/03/14 06:44:02;;;;;;;16.73;6.57;;;;;;;;;;5074040;28;20040;-75
2024/03/14 06:46:28;;;;;;;20.90;6.15;;;;;;;;;;5073683;28;20054;-75
2024/03/14 06:48:55;;;;;;;18.20;6.65;;;;;;;;;;5073893;28;20079;-76
2024/03/14 06:51:22;;;;;;;17.17;6.03;;;;;;;;;;5073645;28;20047;-75
2024/03/14 06:53:49;;;;;;;19.05;6.63;;;;;;;;;;5073852;28;20055;-76
2024/03/14 06:56:17;;;;;;;18.13;6.25;;;;;;;;;;5073464;28;20045;-74
2024/03/14 06:58:49;;;;;;;19.98;6.10;;;;;;;;;;5073961;28;20047;-76
2024/03/14 07:01:17;;;;;;;16.65;6.15;;;;;;;;;;5073018;28;20033;-76
2024/03/14 07:03:45;;;;;;;19.88;6.13;;;;;;;;;;5073746;28;20033;-75
2024/03/14 07:06:14;;;;;;;19.40;5.50;;;;;;;;;;5073233;28;20056;-75
2024/03/14 07:08:42;;;;;;;;;;;;;;;;;;5074066;28;20075;-76
2024/03/14 07:11:11;;;;;;;21.52;5.80;;;;;;;;;;5073275;28;19956;-76
2024/03/14 07:13:38;;;;;;;17.38;5.10;;;;;;;;;;5073595;28;20041;-75
2024/03/14 07:16:11;;;;;;;16.88;5.55;;;;;;;;;;5073127;28;20041;-75
2024/03/14 07:18:38;;;;;;;17.45;4.93;;;;;;;;;;5073243;28;20048;-75
2024/03/14 07:21:05;;;;;;;14.57;4.70;;;;;;;;;;5072973;28;20036;-75
2024/03/14 07:23:33;;;;;;;20.30;5.10;;;;;;;;;;5055284;28;20036;-76
2024/03/14 07:26:02;;;;;;;22.08;5.43;;;;;;;;;;5072966;28;20043;-75
2024/03/14 07:28:31;;;;;;;20.90;5.30;;;;;;;;;;5072840;28;20558;-75
2024/03/14 07:30:58;;;;;;;18.38;4.90;;;;;;;;;;5073133;28;20510;-75
2024/03/14 07:33:26;;;;;;;18.83;5.43;;;;;;;;;;5072741;28;20064;-75
2024/03/14 07:35:54;;;;;;;15.25;4.40;;;;;;;;;;5073277;28;20037;-76
2024/03/14 07:38:27;;;;;;;;;;;;;;;;;;5073172;28;20045;-76
2024/03/14 07:40:55;;;;;;;17.27;4.93;;;;;;;;;;5073022;28;19920;-75
2024/03/14 07:43:22;;;;;;;13.30;4.65;;;;;;;;;;5072696;28;20042;-76
2024/03/14 07:45:49;;;;;;;21.70;4.75;;;;;;;;;;5072831;28;20417;-75
2024/03/14 07:48:17;;;;;;;18.42;4.78;;;;;;;;;;5072634;28;20615;-75
2024/03/14 07:50:45;;;;;;;;;;;;;;;;;;5072973;28;20375;-74
2024/03/14 07:53:12;;;;;;;11.98;4.40;;;;;;;;;;5066647;28;20482;-77
2024/03/14 07:55:40;;;;;;;19.42;5.40;;;;;;;;;;5070933;28;20041;-76
2024/03/14 07:58:08;;;;;;;16.17;3.92;;;;;;;;;;5071076;28;20475;-75
2024/03/14 08:00:36;;;;;;;14.48;4.95;;;;;;;;;;5070850;28;20071;-75
2024/03/14 08:03:04;;;;;;;16.40;4.40;;;;;;;;;;5059689;28;20047;-76
2024/03/14 08:05:32;;;;;;;13.45;3.90;;;;;;;;;;5051768;28;20086;-75
2024/03/14 08:08:01;;;;;;;18.58;3.78;;;;;;;;;;5054252;28;20060;-75
2024/03/14 08:10:45;;;;;;;13.57;3.55;;;;;;;;;;5065371;28;20036;-75
2024/03/14 08:13:23;;;;;;;13.45;3.08;;;;;;;;;;5061914;28;20127;-76
2024/03/14 08:15:53;;;;;;;20.58;4.10;;;;;;;;;;5055926;28;20048;-75
2024/03/14 08:18:22;;;;;;;21.77;3.97;;;;;;;;;;5065912;28;20110;-77
2024/03/14 08:20:51;;;;;;;16.77;3.90;;;;;;;;;;5071281;28;20507;-76
2024/03/14 08:23:20;;;;;;;13.07;2.95;;;;;;;;;;5070689;28;20071;-76
2024/03/14 08:25:47;;;;;;;20.17;3.65;;;;;;;;;;5061438;28;20072;-75
2024/03/14 08:28:15;;;;;;;12.05;2.88;;;;;;;;;;5070457;28;20033;-76
2024/03/14 08:30:45;;;;;;;13.20;3.10;;;;;;;;;;5071225;28;20040;-76
2024/03/14 08:33:13;;;;;;;11.32;3.55;;;;;;;;;;5070701;28;20041;-75
2024/03/14 08:35:42;;;;;;;16.13;3.45;;;;;;;;;;5071210;28;20052;-76
2024/03/14 08:38:13;;;;;;;15.23;3.28;;;;;;;;;;5070434;28;20051;-75
2024/03/14 08:40:42;;;;;;;12.13;2.85;;;;;;;;;;5071158;28;20479;-75
2024/03/14 08:43:11;;;;;;;16.42;3.67;;;;;;;;;;5061789;28;20094;-76
2024/03/14 08:45:39;;;;;;;13.73;3.05;;;;;;;;;;5068958;28;20483;-75
2024/03/14 08:48:09;;;;;;;14.45;3.05;;;;;;;;;;5070385;28;20102;-75
2024/03/14 08:50:40;;;;;;;16.13;2.95;;;;;;;;;;5048677;28;20122;-76
2024/03/14 08:53:12;;;;;;;11.48;3.15;;;;;;;;;;5054676;28;20132;-75
2024/03/14 08:55:45;;;;;;;9.77;2.85;;;;;;;;;;5070777;28;20413;-75
2024/03/14 08:58:12;;;;;;;12.73;3.08;;;;;;;;;;5070563;28;20051;-75
2024/03/14 09:00:39;;;;;;;13.48;3.08;;;;;;;;;;5040131;28;20056;-75
2024/03/14 09:03:06;;;;;;;17.35;3.05;;;;;;;;;;5072114;28;20079;-75
2024/03/14 09:05:33;;;;;;;16.77;3.63;;;;;;;;;;5074168;28;20483;-76
2024/03/14 09:08:00;;;;;;;19.27;3.60;;;;;;;;;;5064767;28;20041;-75
2024/03/14 09:10:27;;;;;;;16.02;2.75;;;;;;;;;;5062758;28;20047;-75
2024/03/14 09:12:55;;;;;;;10.13;2.92;;;;;;;;;;5066331;28;20066;-75
2024/03/14 09:15:23;;;;;;;14.10;3.05;;;;;;;;;;5075339;28;20066;-75
2024/03/14 09:17:52;;;;;;;12.45;3.00;;;;;;;;;;5074878;28;20040;-75
2024/03/14 09:20:22;;;;;;;13.30;3.17;;;;;;;;;;5075240;28;20041;-75
2024/03/14 09:22:55;;;;;;;13.07;3.05;;;;;;;;;;5075675;28;20040;-75
2024/03/14 09:25:24;;;;;;;17.35;3.20;;;;;;;;;;5075059;28;20052;-76
2024/03/14 09:27:52;;;;;;;11.75;2.83;;;;;;;;;;5075566;28;20049;-75
2024/03/14 09:30:21;;;;;;;11.83;3.03;;;;;;;;;;5074913;28;20056;-75
2024/03/14 09:32:50;;;;;;;10.07;2.67;;;;;;;;;;5075265;28;20041;-75
2024/03/14 09:35:25;;;;;;;12.20;2.65;;;;;;;;;;5074905;28;20041;-76
2024/03/14 09:37:55;;;;;;;9.43;3.33;;;;;;;;;;5059179;28;20040;-76
2024/03/14 09:40:23;;;;;;;15.60;3.17;;;;;;;;;;5075156;28;20072;-75
2024/03/14 09:42:58;;;;;;;13.20;3.20;;;;;;;;;;5075327;28;20064;-75
2024/03/14 09:45:26;;;;;;;14.27;2.83;;;;;;;;;;5074576;28;20051;-76
2024/03/14 09:47:56;;;;;;;13.77;2.55;;;;;;;;;;5075079;28;20060;-76
2024/03/14 09:50:26;;;;;;;11.02;2.45;;;;;;;;;;5074292;28;20475;-76
2024/03/14 09:52:54;;;;;;;14.02;3.28;;;;;;;;;;5057465;28;20249;-75
2024/03/14 09:55:23;;;;;;;13.60;3.05;;;;;;;;;;5074645;28;20048;-76
2024/03/14 09:57:53;;;;;;;;;;;;;;;;;;5075714;28;20128;-75
2024/03/14 10:00:21;;;;;;;17.58;3.05;;;;;;;;;;5074567;28;19920;-77
2024/03/14 10:02:49;;;;;;;12.80;3.28;;;;;;;;;;5075133;28;20036;-75
2024/03/14 10:05:16;;;;;;;14.50;2.75;;;;;;;;;;5074383;28;20067;-76
2024/03/14 10:07:45;;;;;;;18.38;3.35;;;;;;;;;;5074585;28;20071;-75
2024/03/14 10:10:13;;;;;;;12.68;3.05;;;;;;;;;;5071008;28;20060;-74
2024/03/14 10:12:52;;;;;;;10.00;3.00;;;;;;;;;;5064155;28;20036;-75
2024/03/14 10:15:21;;;;;;;12.50;3.28;;;;;;;;;;5062702;28;20070;-75
2024/03/14 10:17:53;;;;;;;17.75;3.33;;;;;;;;;;5063867;28;20123;-75
2024/03/14 10:20:20;;;;;;;15.85;3.63;;;;;;;;;;5064531;28;20067;-76
2024/03/14 10:22:48;;;;;;;14.73;3.20;;;;;;;;;;5057347;28;20044;-76
2024/03/14 10:25:17;;;;;;;17.80;3.88;;;;;;;;;;5059317;28;20102;-75
2024/03/14 10:27:54;;;;;;;20.88;4.00;;;;;;;;;;5074356;28;20055;-75
2024/03/14 10:30:28;;;;;;;20.05;4.50;;;;;;;;;;5058234;28;20041;-75
2024/03/14 10:32:56;;;;;;;23.63;4.13;;;;;;;;;;5074423;28;20075;-75
2024/03/14 10:35:25;;;;;;;23.77;4.68;;;;;;;;;;5074154;28;20490;-75
2024/03/14 10:37:57;;;;;;;19.60;5.43;;;;;;;;;;5074458;28;20338;-76
2024/03/14 10:40:27;;;;;;;19.17;3.90;;;;;;;;;;5073825;28;20044;-75
2024/03/14 10:42:56;;;;;;;23.90;5.28;;;;;;;;;;5074167;28;20060;-75
2024/03/14 10:45:24;;;;;;;;;;;;;;;;;;5074180;28;20461;-76
2024/03/14 10:47:51;;;;;;;21.42;4.75;;;;;;;;;;5074048;28;19928;-75
2024/03/14 10:50:19;;;;;;;21.35;4.65;;;;;;;;;;5073456;28;20135;-75
2024/03/14 10:52:50;;;;;;;25.13;4.15;;;;;;;;;;5074084;28;20051;-75
2024/03/14 10:55:18;;;;;;;16.83;3.95;;;;;;;;;;5073488;28;20044;-75
2024/03/14 10:57:48;;;;;;;21.75;4.10;;;;;;;;;;5065099;28;21068;-75
2024/03/14 11:00:17;;;;;;;12.37;4.23;;;;;;;;;;5055931;28;20463;-76
2024/03/14 11:02:50;;;;;;;14.85;3.97;;;;;;;;;;5053811;28;20033;-75
2024/03/14 11:05:22;;;;;;;12.93;4.22;;;;;;;;;;5053330;28;20045;-75
2024/03/14 11:08:00;;;;;;;14.50;4.13;;;;;;;;;;5053829;28;20127;-76
2024/03/14 11:10:28;;;;;;;15.63;3.70;;;;;;;;;;5053212;28;20661;-75
2024/03/14 11:12:56;;;;;;;;;;;;;;;;;;5054113;28;20037;-75
2024/03/14 11:15:24;;;;;;;13.13;4.20;;;;;;;;;;5052924;28;19920;-75
2024/03/14 11:17:55;;;;;;;12.20;3.25;;;;;;;;;;5053255;28;20037;-75
2024/03/14 11:20:25;;;;;;;11.18;3.30;;;;;;;;;;5062968;28;20037;-75
2024/03/14 11:22:56;;;;;;;11.57;3.42;;;;;;;;;;5040032;28;20033;-75
2024/03/14 11:25:25;;;;;;;14.25;3.88;;;;;;;;;;5059078;28;20095;-75
2024/03/14 11:27:56;;;;;;;15.23;3.50;;;;;;;;;;5073365;28;20040;-76
2024/03/14 11:30:24;;;;;;;14.48;3.20;;;;;;;;;;5072586;28;20067;-76
2024/03/14 11:32:55;;;;;;;16.02;3.55;;;;;;;;;;5073345;28;20037;-76
2024/03/14 11:35:45;;;;;;;15.90;4.07;;;;;;;;;;5073005;28;20093;-75
2024/03/14 11:38:18;;;;;;;16.05;3.95;;;;;;;;;;5072791;28;20078;-75
2024/03/14 11:40:46;;;;;;;13.00;4.38;;;;;;;;;;5053396;28;20102;-75
2024/03/14 11:43:24;;;;;;;16.10;4.10;;;;;;;;;;5066667;28;20044;-77
2024/03/14 11:45:59;;;;;;;17.55;4.75;;;;;;;;;;5073086;28;20062;-75
2024/03/14 11:48:30;;;;;;;15.70;4.25;;;;;;;;;;5072341;28;20052;-75
2024/03/14 11:50:58;;;;;;;11.00;3.75;;;;;;;;;;5073063;28;20071;-75
2024/03/14 11:53:27;;;;;;;13.10;3.92;;;;;;;;;;5072617;28;20136;-76
2024/03/14 11:55:54;;;;;;;12.93;4.10;;;;;;;;;;5072939;28;20356;-75
2024/03/14 11:58:38;;;;;;;13.75;4.03;;;;;;;;;;5071690;28;20764;-76
2024/03/14 12:01:06;;;;;;;15.43;3.92;;;;;;;;;;5070209;28;20387;-75
2024/03/14 12:03:33;;;;;;;13.25;3.75;;;;;;;;;;5070747;28;20045;-75
2024/03/14 12:06:05;;;;;;;9.65;3.92;;;;;;;;;;5070711;28;20142;-75
2024/03/14 12:08:36;;;;;;;11.48;3.88;;;;;;;;;;5070458;28;20047;-75
2024/03/14 12:11:04;;;;;;;12.27;3.58;;;;;;;;;;5070595;28;20044;-75
2024/03/14 12:13:32;;;;;;;11.07;3.83;;;;;;;;;;5066389;28;20044;-76
2024/03/14 12:16:03;;;;;;;11.80;4.00;;;;;;;;;;5064169;28;20048;-74
2024/03/14 12:18:32;;;;;;;16.00;4.93;;;;;;;;;;5053144;28;20064;-75
2024/03/14 12:21:00;;;;;;;19.88;5.18;;;;;;;;;;5071168;28;20050;-75
2024/03/14 12:23:28;;;;;;;19.13;5.45;;;;;;;;;;5070728;28;20094;-75
2024/03/14 12:26:02;;;;;;;20.02;5.47;;;;;;;;;;5070434;28;20037;-75
2024/03/14 12:28:31;;;;;;;20.67;4.93;;;;;;;;;;5061731;28;20545;-75
2024/03/14 12:31:00;;;;;;;22.92;5.43;;;;;;;;;;5065661;28;20040;-75
2024/03/14 12:33:28;;;;;;;13.85;4.30;;;;;;;;;;5067503;28;20067;-75
2024/03/14 12:35:56;;;;;;;19.10;4.50;;;;;;;;;;5061991;28;20067;-75
2024/03/14 12:38:23;;;;;;;23.25;4.22;;;;;;;;;;5064453;28;20383;-75
2024/03/14 12:40:53;;;;;;;14.48;4.43;;;;;;;;;;5065772;28;20128;-74
2024/03/14 12:43:21;;;;;;;18.02;4.25;;;;;;;;;;5068578;28;20040;-75
2024/03/14 12:45:49;;;;;;;20.50;4.77;;;;;;;;;;5038253;28;20044;-75
2024/03/14 12:48:18;;;;;;;18.08;4.50;;;;;;;;;;5053638;28;21043;-75
2024/03/14 12:50:45;;;;;;;14.15;3.80;;;;;;;;;;5054867;28;20086;-75
2024/03/14 12:53:19;;;;;;;23.77;4.53;;;;;;;;;;5055824;28;20083;-75
2024/03/14 12:55:52;;;;;;;15.45;4.82;;;;;;;;;;5056322;28;20033;-75
2024/03/14 12:58:25;;;;;;;27.92;5.85;;;;;;;;;;5055670;28;20053;-75
2024/03/14 13:00:54;;;;;;;25.73;5.35;;;;;;;;;;5056087;28;20124;-74
2024/03/14 13:03:24;;;;;;;18.77;4.32;;;;;;;;;;5055684;28;20045;-75
2024/03/14 13:05:55;;;;;;;25.52;5.63;;;;;;;;;;5055893;28;20048;-75
2024/03/14 13:08:26;;;;;;;16.98;4.90;;;;;;;;;;5055667;28;20037;-75
2024/03/14 13:11:15;;;;;;;24.63;5.72;;;;;;;;;;5056184;28;20060;-75
2024/03/14 13:13:42;;;;;;;21.27;4.72;;;;;;;;;;5053453;28;20155;-75
2024/03/14 13:16:15;;;;;;;22.73;4.88;;;;;;;;;;5053135;28;20072;-74
2024/03/14 13:18:42;;;;;;;22.90;5.13;;;;;;;;;;5053523;28;20044;-75
2024/03/14 13:21:11;;;;;;;27.63;5.00;;;;;;;;;;5053086;28;20505;-75
2024/03/14 13:23:41;;;;;;;23.67;4.55;;;;;;;;;;5053580;28;20037;-75
2024/03/14 13:26:12;;;;;;;23.02;4.43;;;;;;;;;;5065524;28;20399;-75
2024/03/14 13:28:40;;;;;;;18.50;4.13;;;;;;;;;;5075208;28;20136;-75
2024/03/14 13:31:12;;;;;;;22.00;4.33;;;;;;;;;;5075053;28;20357;-75
2024/03/14 13:33:39;;;;;;;21.50;4.75;;;;;;;;;;5075684;28;20094;-75
2024/03/14 13:36:09;;;;;;;18.77;4.78;;;;;;;;;;5075017;28;20112;-75
2024/03/14 13:38:37;;;;;;;20.95;4.38;;;;;;;;;;5075434;28;20053;-75
2024/03/14 13:41:04;;;;;;;23.48;4.82;;;;;;;;;;5074804;28;20041;-74
2024/03/14 13:43:34;;;;;;;27.52;5.38;;;;;;;;;;5075387;28;20114;-75
2024/03/14 13:46:01;;;;;;;25.95;5.35;;;;;;;;;;5075381;28;20056;-74
2024/03/14 13:48:32;;;;;;;26.50;4.50;;;;;;;;;;5056475;28;20128;-75
2024/03/14 13:51:02;;;;;;;29.58;5.03;;;;;;;;;;5074466;28;20043;-75
2024/03/14 13:53:29;;;;;;;23.77;5.18;;;;;;;;;;5074802;28;20055;-75
2024/03/14 13:55:59;;;;;;;20.95;4.45;;;;;;;;;;5075006;28;20037;-74
2024/03/14 13:58:27;;;;;;;20.58;4.18;;;;;;;;;;5074742;28;20067;-75
2024/03/14 14:00:56;;;;;;;18.52;4.28;;;;;;;;;;5075061;28;20048;-75
2024/03/14 14:03:23;;;;;;;22.77;4.10;;;;;;;;;;5074606;28;20050;-75
2024/03/14 14:05:55;;;;;;;25.08;5.15;;;;;;;;;;5056977;28;20051;-75
2024/03/14 14:08:29;;;;;;;19.98;4.60;;;;;;;;;;5074395;28;20044;-75
2024/03/14 14:10:56;;;;;;;25.63;5.35;;;;;;;;;;5074674;28;20040;-74
2024/03/14 14:13:23;;;;;;;23.85;4.63;;;;;;;;;;5074843;28;20364;-75
2024/03/14 14:15:52;;;;;;;24.85;4.45;;;;;;;;;;5074697;28;20047;-75
2024/03/14 14:18:19;;;;;;;26.10;5.35;;;;;;;;;;5073994;28;20056;-75
2024/03/14 14:20:46;;;;;;;23.08;4.40;;;;;;;;;;5074879;28;20090;-75
2024/03/14 14:23:13;;;;;;;21.10;4.72;;;;;;;;;;5074082;28;20047;-75
2024/03/14 14:25:39;;;;;;;32.42;6.22;;;;;;;;;;5074368;28;20047;-74
2024/03/14 14:28:07;;;;;;;28.50;5.68;;;;;;;;;;5074252;28;20037;-74
2024/03/14 14:30:35;;;;;;;20.65;5.22;;;;;;;;;;5074440;28;20032;-75
2024/03/14 14:33:03;;;;;;;;;;;;;;;;;;5057192;28;20082;-75
2024/03/14 14:35:30;;;;;;;29.63;5.15;;;;;;;;;;5074133;28;19920;-76
2024/03/14 14:37:57;;;;;;;26.63;5.95;;;;;;;;;;5074559;28;20418;-74
2024/03/14 14:40:24;;;;;;;25.38;4.70;;;;;;;;;;5073815;28;20044;-74
2024/03/14 14:42:53;;;;;;;28.98;6.15;;;;;;;;;;5074272;28;20064;-75